Airfield :
LOGIN :

Register | Disclaimer

   EN    FR    IT 

 










Legend :    VFR   Marginal VFR   IFR   Intensive IFR   Very Intensive IFR
Visi :
Ceiling :
>= 8 km
>= 3000ft
5 to 8 km
1000 to 3000 ft
1500m to 5 km
500 to 1000 ft
800 to 1500m
200 to 500 ft
< 800m
< 200 ft
Symbols :   Thunderstorms  Fog  Heavy snow  Heavy precipitations  Wind > 20 kt
SIGMETs :     Misc.  Thunderstorms  Icing  Turbulence  Mountain Waves  Volcanic Ashes






- Airport Elevation : 1233 ft
- IATA code : OSD


ESNZ - Östersund

CURRENT METAR :
  • 071820Z AUTO 16004KT 110V200 9999 FEW064/// BKN084/// 08/06 Q0993 RERA RESHUP

EXPIRED METARs :
  • 071750Z VRB02KT CAVOK 08/06 Q0993
  • 071720Z 26015KT 9999 -RA FEW029 BKN045 09/06 Q0994
  • 071650Z 25013KT 9999 OVC045 11/05 Q0993
  • 071620Z 22010KT 9999 BKN047 11/06 Q0993
  • 071550Z 22010KT 9999 FEW021 BKN045 10/07 Q0993

TAF TAF ESNZ
Valid from the 07 at 15:00 until the 07 at 19:00 UTC


071430Z 0715/0719 19014G24KT 9999 SCT040
PROB40 0715/0718 SHRA BKN014CB
BECMG 0716/0718 VRB03KT



MET'MAP, your aeronautical weather chart ! - Copyright ORBIFLY December 2007 - Disclaimer

ORBIFLY MET'MAP TEAM :

Programming & Development : Alexandra Zaïnal
Original concept : Baudouin d'Aumeries
Technical & hardware support : Manuel Goepfert
Assistance : Marc-Olivier Méhu




SOURCES & CREDITS :

   NOAA